Terminal Aerodrome Forecast
Issued by NWS

Home | Current Version | Previous Version | Text Only | Print | Product List | Glossary On
Versions: 1 2 3 4 5 6 7 8 9 10 11 12 13 14 15 16
001
FTAK31 PAJN 232209 AAB
TAFASI
TAF AMD
PASI 232209Z 2322/2418 12006KT P6SM -RA SCT008 SCT025 OVC040
      TEMPO 2322/2402 3SM -RASN BR BKN015 OVC025
     FM240300 13006KT P6SM SCT025 BKN040 OVC060
     FM240800 13015KT P6SM -RA SCT020 OVC035
     FM241200 12015G25KT P6SM -RA BKN015 OVC025=

USA.gov is the U.S. government's official web portal to all federal, state and local government web resources and services.